createdAt,value
2022-12-27T00:13:32.552Z,22.13
2022-12-27T00:28:35.488Z,18.47
2022-12-27T00:43:37.742Z,13.60
2022-12-27T00:58:41.003Z,17.47
2022-12-27T01:13:44.468Z,20.70
2022-12-27T01:28:46.938Z,24.03
2022-12-27T01:43:49.063Z,23.70
2022-12-27T01:59:01.667Z,29.27
2022-12-27T02:14:03.587Z,18.83
2022-12-27T02:29:35.452Z,23.23
2022-12-27T02:44:56.738Z,31.27
2022-12-27T03:00:34.173Z,26.83
2022-12-27T03:15:57.655Z,16.13
2022-12-27T03:31:24.746Z,39.47
2022-12-27T03:46:34.419Z,26.57
2022-12-27T04:01:36.451Z,37.87
2022-12-27T04:16:56.872Z,13.30
2022-12-27T04:32:17.699Z,8.53
2022-12-27T04:47:40.593Z,12.13
2022-12-27T05:02:42.559Z,14.00
2022-12-27T05:17:44.556Z,8.53
2022-12-27T05:32:46.328Z,10.17
2022-12-27T05:47:48.486Z,10.10
2022-12-27T06:02:50.433Z,4.63
2022-12-27T06:17:52.329Z,31.37
2022-12-27T06:32:54.140Z,52.23
2022-12-27T06:48:02.549Z,37.17
2022-12-27T10:26:19.605Z,15.03
2022-12-27T10:42:03.118Z,12.17
2022-12-27T10:57:34.580Z,18.50
2022-12-27T11:12:36.774Z,19.13
2022-12-27T11:27:38.764Z,29.90
2022-12-27T11:42:43.112Z,31.33
2022-12-27T11:58:03.103Z,38.93
2022-12-27T12:13:07.849Z,7.83
2022-12-27T12:28:58.258Z,6.30
2022-12-27T12:44:22.690Z,6.47
2022-12-27T12:59:37.475Z,8.10
2022-12-27T13:14:51.248Z,1.83
2022-12-27T13:30:07.200Z,3.70
2022-12-27T14:00:25.018Z,3.97
2022-12-27T14:16:04.562Z,4.33
2022-12-27T14:31:41.981Z,8.03
2022-12-27T14:47:08.546Z,7.37
2022-12-27T15:02:16.453Z,6.45
2022-12-27T15:17:56.832Z,4.93
2022-12-27T15:33:09.323Z,5.50
2022-12-27T15:48:42.203Z,5.63
2022-12-27T19:41:18.438Z,8.17
2022-12-27T19:56:20.718Z,12.20
2022-12-27T20:11:23.899Z,9.77
2022-12-27T20:26:26.112Z,11.53
2022-12-27T20:41:29.947Z,12.77
2022-12-27T20:56:31.803Z,6.90
2022-12-27T21:11:33.696Z,14.77
2022-12-27T21:26:37.991Z,13.90
2022-12-27T21:41:41.022Z,10.47
2022-12-27T21:56:43.285Z,14.70
2022-12-27T22:11:45.255Z,17.27
2022-12-27T22:26:48.776Z,6.10
2022-12-27T22:41:51.024Z,11.57
2022-12-27T22:56:52.802Z,12.07
2022-12-27T23:11:54.769Z,13.80
2022-12-27T23:26:56.576Z,6.23
2022-12-27T23:41:58.546Z,6.03
2022-12-27T23:57:20.307Z,1.93
